Time;durP1;ratioP1;P1;durP2;ratioP2;P2;SDS_P1;SDS_P2;PMS_P1;PMS_P2;Temp;Humidity;BMP_temperature;BMP_pressure;BME280_temperature;BME280_humidity;BME280_pressure;Samples;Min_cycle;Max_cycle;Signal;HPM_P1;HPM_P2
2022/10/14 00:02:29;;;;;;;160.50;58.35;;;;;;;;;;6285673;28;20040;-60
2022/10/14 00:05:29;;;;;;;150.90;55.72;;;;;;;;;;6285414;28;20087;-61
2022/10/14 00:08:30;;;;;;;151.38;53.63;;;;;;;;;;6283862;28;20048;-63
2022/10/14 00:11:32;;;;;;;151.55;55.55;;;;;;;;;;6282924;28;20159;-63
2022/10/14 00:14:32;;;;;;;144.68;51.92;;;;;;;;;;6285762;28;20045;-64
2022/10/14 00:17:33;;;;;;;133.75;50.83;;;;;;;;;;6285056;28;20051;-63
2022/10/14 00:20:35;;;;;;;131.43;48.13;;;;;;;;;;6285335;28;20493;-59
2022/10/14 00:23:35;;;;;;;127.30;47.97;;;;;;;;;;6285388;28;20083;-63
2022/10/14 00:26:37;;;;;;;136.63;46.28;;;;;;;;;;6286599;28;20055;-63
2022/10/14 00:29:38;;;;;;;117.50;44.88;;;;;;;;;;6281408;28;20095;-61
2022/10/14 00:32:38;;;;;;;117.35;46.45;;;;;;;;;;6285211;28;20069;-62
2022/10/14 00:35:39;;;;;;;123.15;46.33;;;;;;;;;;6284702;28;20225;-60
2022/10/14 00:38:40;;;;;;;123.22;47.72;;;;;;;;;;6284650;28;20082;-60
2022/10/14 00:41:41;;;;;;;127.63;47.65;;;;;;;;;;6287206;28;20143;-60
2022/10/14 00:44:41;;;;;;;131.15;48.30;;;;;;;;;;6287072;28;20052;-61
2022/10/14 00:47:42;;;;;;;123.65;46.08;;;;;;;;;;6285570;28;20498;-63
2022/10/14 00:50:45;;;;;;;125.82;45.65;;;;;;;;;;6283619;28;20465;-60
2022/10/14 00:53:46;;;;;;;124.82;46.00;;;;;;;;;;6285761;28;20046;-64
2022/10/14 00:56:47;;;;;;;128.45;46.88;;;;;;;;;;6285946;28;20401;-63
2022/10/14 00:59:48;;;;;;;130.52;47.92;;;;;;;;;;6284407;28;20135;-61
2022/10/14 01:02:48;;;;;;;131.02;47.10;;;;;;;;;;6286335;28;20036;-60
2022/10/14 01:06:00;;;;;;;119.72;44.75;;;;;;;;;;6284515;28;20040;-61
2022/10/14 01:09:23;;;;;;;139.20;48.58;;;;;;;;;;6287103;28;20052;-61
2022/10/14 01:12:44;;;;;;;;;;;;;;;;;;6286335;28;20134;-63
2022/10/14 01:16:04;;;;;;;139.07;47.58;;;;;;;;;;6283195;28;19925;-62
2022/10/14 01:19:29;;;;;;;146.18;49.45;;;;;;;;;;6283672;28;20139;-64
2022/10/14 01:22:45;;;;;;;138.52;48.83;;;;;;;;;;6287137;28;20109;-63
2022/10/14 01:26:23;;;;;;;149.32;52.15;;;;;;;;;;6288252;28;20048;-62
2022/10/14 01:29:51;;;;;;;141.90;51.15;;;;;;;;;;6289585;28;20139;-62
2022/10/14 01:32:57;;;;;;;136.27;49.05;;;;;;;;;;6290983;28;20135;-60
2022/10/14 01:36:07;;;;;;;142.13;51.75;;;;;;;;;;6290197;28;20052;-63
2022/10/14 01:39:15;;;;;;;140.77;49.45;;;;;;;;;;6284414;28;20076;-59
2022/10/14 01:42:20;;;;;;;137.90;51.28;;;;;;;;;;6290066;28;20058;-61
2022/10/14 01:45:24;;;;;;;144.75;52.50;;;;;;;;;;6290719;28;20036;-63
2022/10/14 01:48:31;;;;;;;151.55;52.95;;;;;;;;;;6290639;28;20040;-61
2022/10/14 01:51:48;;;;;;;136.85;48.60;;;;;;;;;;6287465;28;20076;-59
2022/10/14 01:54:52;;;;;;;148.45;52.65;;;;;;;;;;6289623;28;20418;-63
2022/10/14 01:57:55;;;;;;;155.82;57.03;;;;;;;;;;6290314;28;20082;-63
2022/10/14 02:00:56;;;;;;;147.15;52.10;;;;;;;;;;6288005;28;20399;-60
2022/10/14 02:03:56;;;;;;;139.55;53.10;;;;;;;;;;6287072;28;20123;-60
2022/10/14 02:07:16;;;;;;;153.10;52.55;;;;;;;;;;6289360;28;20052;-61
2022/10/14 02:10:17;;;;;;;138.95;50.05;;;;;;;;;;6288784;28;20151;-62
2022/10/14 02:13:42;;;;;;;150.88;53.17;;;;;;;;;;6287924;28;20391;-63
2022/10/14 02:16:55;;;;;;;162.27;55.13;;;;;;;;;;6288747;28;20530;-59
2022/10/14 02:20:18;;;;;;;165.85;59.05;;;;;;;;;;6288104;28;20048;-64
2022/10/14 02:23:34;;;;;;;154.43;58.15;;;;;;;;;;6288572;28;20087;-63
2022/10/14 02:26:36;;;;;;;148.90;54.38;;;;;;;;;;6285887;28;20076;-58
2022/10/14 02:29:40;;;;;;;155.40;55.55;;;;;;;;;;6289170;28;20590;-59
2022/10/14 02:32:42;;;;;;;158.23;56.50;;;;;;;;;;6289041;28;20303;-63
2022/10/14 02:35:43;;;;;;;149.05;54.63;;;;;;;;;;6293827;28;20139;-64
2022/10/14 02:38:45;;;;;;;163.20;56.42;;;;;;;;;;6288837;28;20052;-62
2022/10/14 02:41:46;;;;;;;155.23;55.63;;;;;;;;;;6291811;28;20138;-62
2022/10/14 02:44:54;;;;;;;144.73;52.13;;;;;;;;;;6288513;28;20052;-63
2022/10/14 02:47:55;;;;;;;150.70;54.42;;;;;;;;;;6288547;28;20135;-64
2022/10/14 02:50:56;;;;;;;144.15;53.63;;;;;;;;;;6290704;28;20052;-60
2022/10/14 02:53:56;;;;;;;152.65;54.53;;;;;;;;;;6291672;28;20048;-64
2022/10/14 02:56:57;;;;;;;145.75;55.00;;;;;;;;;;6292557;28;20048;-63
2022/10/14 02:59:57;;;;;;;148.50;52.05;;;;;;;;;;6290436;28;20040;-64
2022/10/14 03:02:58;;;;;;;143.90;50.75;;;;;;;;;;6290480;28;20724;-63
2022/10/14 03:05:59;;;;;;;159.82;58.38;;;;;;;;;;6286731;28;20766;-59
2022/10/14 03:08:59;;;;;;;164.48;64.30;;;;;;;;;;6285067;28;20048;-61
2022/10/14 03:12:00;;;;;;;148.48;55.08;;;;;;;;;;6291402;28;20098;-63
2022/10/14 03:15:00;;;;;;;153.85;59.55;;;;;;;;;;6289195;28;20467;-63
2022/10/14 03:18:01;;;;;;;148.10;58.17;;;;;;;;;;6285971;28;20052;-60
2022/10/14 03:21:01;;;;;;;151.80;53.50;;;;;;;;;;6287948;28;20195;-64
2022/10/14 03:24:02;;;;;;;146.20;55.78;;;;;;;;;;6285111;28;20055;-63
2022/10/14 03:27:03;;;;;;;160.77;58.75;;;;;;;;;;6292940;28;20470;-63
2022/10/14 03:30:04;;;;;;;139.63;50.72;;;;;;;;;;6286403;28;20052;-59
2022/10/14 03:33:04;;;;;;;135.13;49.08;;;;;;;;;;6288063;28;20047;-61
2022/10/14 03:36:05;;;;;;;141.95;50.28;;;;;;;;;;6289965;28;20049;-63
2022/10/14 03:39:06;;;;;;;152.63;51.85;;;;;;;;;;6291881;28;20171;-63
2022/10/14 03:42:06;;;;;;;134.07;51.50;;;;;;;;;;6290360;28;20052;-61
2022/10/14 03:45:07;;;;;;;134.98;50.30;;;;;;;;;;6287131;28;20475;-60
2022/10/14 03:48:08;;;;;;;142.90;52.60;;;;;;;;;;6289591;28;20148;-62
2022/10/14 03:51:08;;;;;;;142.48;51.83;;;;;;;;;;6294634;28;20129;-60
2022/10/14 03:54:09;;;;;;;139.25;49.10;;;;;;;;;;6289487;28;20071;-63
2022/10/14 03:57:10;;;;;;;154.52;53.55;;;;;;;;;;6291510;28;20054;-60
2022/10/14 04:00:11;;;;;;;135.82;50.38;;;;;;;;;;6287007;28;20083;-59
2022/10/14 04:03:12;;;;;;;128.32;47.78;;;;;;;;;;6284102;28;20135;-62
2022/10/14 04:06:13;;;;;;;136.00;50.08;;;;;;;;;;6287218;28;20045;-63
2022/10/14 04:09:14;;;;;;;143.88;52.67;;;;;;;;;;6288089;28;20056;-62
2022/10/14 04:12:14;;;;;;;150.73;53.28;;;;;;;;;;6285746;28;20040;-62
2022/10/14 04:15:15;;;;;;;137.07;52.28;;;;;;;;;;6284644;28;20044;-59
2022/10/14 04:18:16;;;;;;;146.57;51.47;;;;;;;;;;6282361;28;20056;-60
2022/10/14 04:21:16;;;;;;;144.82;51.40;;;;;;;;;;6286971;28;20036;-59
2022/10/14 04:24:17;;;;;;;141.65;50.38;;;;;;;;;;6285627;28;20129;-61
2022/10/14 04:27:18;;;;;;;137.80;52.35;;;;;;;;;;6284877;28;20074;-63
2022/10/14 04:30:18;;;;;;;134.52;48.28;;;;;;;;;;6288338;28;20040;-58
2022/10/14 04:33:19;;;;;;;138.35;47.10;;;;;;;;;;6285954;28;20080;-62
2022/10/14 04:36:19;;;;;;;134.65;51.38;;;;;;;;;;6283340;28;20083;-64
2022/10/14 04:39:20;;;;;;;140.40;50.58;;;;;;;;;;6286740;28;20407;-63
2022/10/14 04:42:20;;;;;;;139.35;52.00;;;;;;;;;;6287497;28;20079;-63
2022/10/14 04:45:21;;;;;;;141.18;51.42;;;;;;;;;;6284353;28;20065;-63
2022/10/14 04:48:22;;;;;;;129.15;48.75;;;;;;;;;;6283564;28;20600;-62
2022/10/14 04:51:22;;;;;;;139.50;52.72;;;;;;;;;;6286025;28;20927;-63
2022/10/14 04:54:23;;;;;;;140.52;51.83;;;;;;;;;;6285784;28;20136;-60
2022/10/14 04:57:23;;;;;;;138.73;51.90;;;;;;;;;;6282087;28;20063;-64
2022/10/14 05:00:24;;;;;;;144.05;49.00;;;;;;;;;;6284219;28;20494;-63
2022/10/14 05:03:24;;;;;;;131.18;50.20;;;;;;;;;;6285443;28;20052;-59
2022/10/14 05:06:26;;;;;;;144.65;51.92;;;;;;;;;;6281941;28;20045;-60
2022/10/14 05:09:27;;;;;;;138.57;52.20;;;;;;;;;;6283988;28;20063;-58
2022/10/14 05:12:27;;;;;;;127.20;49.67;;;;;;;;;;6285959;28;20045;-62
2022/10/14 05:15:28;;;;;;;142.13;51.28;;;;;;;;;;6291831;28;20066;-60
2022/10/14 05:18:28;;;;;;;130.25;49.10;;;;;;;;;;6294619;28;20499;-60
2022/10/14 05:21:29;;;;;;;127.28;47.53;;;;;;;;;;6297220;28;20583;-60
2022/10/14 05:24:29;;;;;;;114.30;43.08;;;;;;;;;;6297979;28;20044;-58
2022/10/14 05:27:30;;;;;;;130.73;47.10;;;;;;;;;;6291720;28;20048;-61
2022/10/14 05:30:31;;;;;;;129.52;47.28;;;;;;;;;;6294314;28;20063;-63
2022/10/14 05:33:32;;;;;;;132.65;47.97;;;;;;;;;;6288548;28;20071;-64
2022/10/14 05:36:33;;;;;;;133.27;47.33;;;;;;;;;;6287972;28;20165;-63
2022/10/14 05:39:33;;;;;;;129.05;46.40;;;;;;;;;;6286798;28;20051;-62
2022/10/14 05:42:34;;;;;;;120.07;45.05;;;;;;;;;;6283249;28;20041;-63
2022/10/14 05:45:34;;;;;;;120.90;44.90;;;;;;;;;;6286907;28;20501;-63
2022/10/14 05:48:35;;;;;;;122.50;46.00;;;;;;;;;;6285070;28;20516;-64
2022/10/14 05:51:35;;;;;;;128.55;46.15;;;;;;;;;;6287858;28;20045;-62
2022/10/14 05:54:36;;;;;;;125.05;45.63;;;;;;;;;;6287580;28;20355;-58
2022/10/14 05:57:36;;;;;;;126.38;49.20;;;;;;;;;;6289077;28;20050;-59
2022/10/14 06:00:37;;;;;;;158.65;55.35;;;;;;;;;;6289507;28;20044;-62
2022/10/14 06:03:37;;;;;;;160.07;61.22;;;;;;;;;;6289388;28;20643;-59
2022/10/14 06:06:38;;;;;;;187.38;68.25;;;;;;;;;;6285238;28;20147;-59
2022/10/14 06:09:39;;;;;;;174.85;64.90;;;;;;;;;;6285998;28;20151;-60
2022/10/14 06:12:39;;;;;;;195.07;71.07;;;;;;;;;;6284622;28;20399;-63
2022/10/14 06:15:40;;;;;;;190.02;74.65;;;;;;;;;;6288640;28;20044;-64
2022/10/14 06:18:40;;;;;;;183.18;67.78;;;;;;;;;;6285523;28;20416;-62
2022/10/14 06:21:41;;;;;;;178.07;65.40;;;;;;;;;;6288400;28;20048;-59
2022/10/14 06:24:41;;;;;;;177.50;65.75;;;;;;;;;;6286352;28;20060;-62
2022/10/14 06:27:42;;;;;;;165.63;62.90;;;;;;;;;;6286696;28;20048;-59
2022/10/14 06:30:48;;;;;;;160.88;58.85;;;;;;;;;;6288472;28;20723;-60
2022/10/14 06:33:49;;;;;;;150.32;54.63;;;;;;;;;;6286233;28;20122;-60
2022/10/14 06:36:49;;;;;;;139.90;52.47;;;;;;;;;;6285339;28;20056;-63
2022/10/14 06:39:50;;;;;;;139.27;50.38;;;;;;;;;;6287053;28;20056;-59
2022/10/14 06:42:52;;;;;;;140.07;48.63;;;;;;;;;;6288965;28;20284;-64
2022/10/14 06:45:56;;;;;;;137.93;50.30;;;;;;;;;;6291126;28;20046;-63
2022/10/14 06:48:56;;;;;;;133.80;49.85;;;;;;;;;;6287317;28;20062;-59
2022/10/14 06:51:57;;;;;;;135.15;50.70;;;;;;;;;;6285222;28;20052;-62
2022/10/14 06:54:58;;;;;;;140.25;52.42;;;;;;;;;;6288652;28;20048;-62
2022/10/14 06:57:58;;;;;;;149.43;58.17;;;;;;;;;;6290551;28;20045;-59
2022/10/14 07:01:01;;;;;;;145.55;56.00;;;;;;;;;;6289910;28;20052;-63
2022/10/14 07:04:03;;;;;;;157.35;54.20;;;;;;;;;;6287296;28;20063;-59
2022/10/14 07:07:03;;;;;;;139.57;50.30;;;;;;;;;;6287472;28;20146;-63
2022/10/14 07:10:04;;;;;;;142.50;51.97;;;;;;;;;;6291085;28;20283;-63
2022/10/14 07:13:05;;;;;;;141.05;52.90;;;;;;;;;;6292659;28;20105;-59
2022/10/14 07:16:06;;;;;;;142.48;54.58;;;;;;;;;;6291148;28;20091;-60
2022/10/14 07:19:07;;;;;;;138.98;50.50;;;;;;;;;;6287531;28;20044;-62
2022/10/14 07:22:08;;;;;;;134.48;50.60;;;;;;;;;;6287822;28;20056;-62
2022/10/14 07:25:09;;;;;;;135.35;51.80;;;;;;;;;;6288582;28;20747;-63
2022/10/14 07:28:09;;;;;;;152.30;52.70;;;;;;;;;;6291190;28;20040;-62
2022/10/14 07:31:12;;;;;;;169.20;57.70;;;;;;;;;;6291933;28;20490;-62
2022/10/14 07:34:12;;;;;;;189.35;63.22;;;;;;;;;;6289064;28;20536;-61
2022/10/14 07:37:13;;;;;;;222.38;63.65;;;;;;;;;;6290045;28;20076;-64
2022/10/14 07:40:14;;;;;;;196.70;60.47;;;;;;;;;;6286597;28;20052;-60
2022/10/14 07:43:14;;;;;;;141.95;52.10;;;;;;;;;;6289838;28;20045;-63
2022/10/14 07:46:28;;;;;;;142.43;52.63;;;;;;;;;;6286013;28;20585;-60
2022/10/14 07:49:28;;;;;;;145.73;51.55;;;;;;;;;;6284478;28;20068;-64
2022/10/14 07:52:29;;;;;;;149.38;53.05;;;;;;;;;;6291114;28;20101;-63
2022/10/14 07:55:30;;;;;;;142.05;54.75;;;;;;;;;;6286019;28;22112;-60
2022/10/14 07:58:31;;;;;;;144.02;54.50;;;;;;;;;;6286169;28;20170;-64
2022/10/14 08:01:32;;;;;;;145.15;52.67;;;;;;;;;;6285879;28;20052;-58
2022/10/14 08:04:32;;;;;;;139.13;53.03;;;;;;;;;;6283759;28;20044;-62
2022/10/14 08:07:33;;;;;;;142.60;51.13;;;;;;;;;;6287133;28;20053;-62
2022/10/14 08:10:35;;;;;;;137.43;48.95;;;;;;;;;;6285186;28;20056;-62
2022/10/14 08:13:37;;;;;;;137.68;48.15;;;;;;;;;;6287017;28;20163;-63
2022/10/14 08:16:38;;;;;;;125.57;47.53;;;;;;;;;;6288803;28;20678;-61
2022/10/14 08:19:39;;;;;;;204.03;69.50;;;;;;;;;;6286717;28;20139;-65
2022/10/14 08:22:39;;;;;;;167.73;56.63;;;;;;;;;;6287437;28;20048;-62
2022/10/14 08:25:40;;;;;;;192.43;63.58;;;;;;;;;;6288644;28;20059;-61
2022/10/14 08:28:41;;;;;;;158.63;54.95;;;;;;;;;;6272462;28;20453;-61
2022/10/14 08:31:42;;;;;;;154.25;55.50;;;;;;;;;;6272001;28;20191;-60
2022/10/14 08:34:42;;;;;;;134.32;49.10;;;;;;;;;;6264643;28;20045;-62
2022/10/14 08:37:43;;;;;;;142.60;51.47;;;;;;;;;;6268315;28;20067;-63
2022/10/14 08:41:06;;;;;;;145.20;50.65;;;;;;;;;;6243962;28;20143;-62
2022/10/14 08:44:27;;;;;;;139.48;50.47;;;;;;;;;;6245132;28;20089;-59
2022/10/14 08:47:36;;;;;;;138.23;49.38;;;;;;;;;;6240578;28;20060;-60
2022/10/14 08:50:46;;;;;;;158.65;53.95;;;;;;;;;;6239272;28;20447;-60
2022/10/14 08:54:04;;;;;;;142.88;51.15;;;;;;;;;;6242764;28;20227;-60
2022/10/14 08:57:13;;;;;;;129.35;46.85;;;;;;;;;;6244326;28;21360;-62
2022/10/14 09:00:14;;;;;;;112.07;38.58;;;;;;;;;;6240834;28;20049;-60
2022/10/14 09:03:21;;;;;;;101.70;38.42;;;;;;;;;;6240241;28;20135;-60
2022/10/14 09:06:25;;;;;;;107.43;40.30;;;;;;;;;;6243562;28;20044;-59
2022/10/14 09:09:43;;;;;;;110.28;38.78;;;;;;;;;;6244990;28;20048;-60
2022/10/14 09:12:44;;;;;;;99.20;38.08;;;;;;;;;;6242750;28;20487;-62
2022/10/14 09:15:48;;;;;;;112.07;39.25;;;;;;;;;;6239888;28;20127;-60
2022/10/14 09:18:51;;;;;;;113.55;39.60;;;;;;;;;;6239389;28;20649;-62
2022/10/14 09:21:54;;;;;;;112.93;40.63;;;;;;;;;;6241664;28;20480;-63
2022/10/14 09:24:56;;;;;;;118.13;41.03;;;;;;;;;;6238783;28;20041;-59
2022/10/14 09:27:57;;;;;;;;;;;;;;;;;;6241386;28;20442;-60
2022/10/14 09:30:57;;;;;;;107.82;40.15;;;;;;;;;;6241356;28;19929;-62
2022/10/14 09:33:58;;;;;;;103.53;39.10;;;;;;;;;;6242895;28;20584;-59
2022/10/14 09:37:16;;;;;;;106.72;40.03;;;;;;;;;;6238566;28;21148;-58
2022/10/14 09:40:42;;;;;;;103.47;39.28;;;;;;;;;;6263097;28;20061;-60
2022/10/14 09:44:17;;;;;;;111.45;39.20;;;;;;;;;;6269929;28;20491;-58
2022/10/14 09:47:18;;;;;;;100.72;37.25;;;;;;;;;;6270559;28;20049;-60
2022/10/14 09:50:30;;;;;;;99.82;38.67;;;;;;;;;;6271031;28;20075;-60
2022/10/14 09:53:32;;;;;;;;;;;;;;;;;;6271951;28;20423;-62
2022/10/14 09:56:41;;;;;;;101.57;40.33;;;;;;;;;;6272135;28;19931;-61
2022/10/14 09:59:57;;;;;;;99.97;36.67;;;;;;;;;;6270563;28;20097;-60
2022/10/14 10:02:57;;;;;;;92.55;35.33;;;;;;;;;;6275317;28;20037;-59
2022/10/14 10:06:02;;;;;;;92.13;33.83;;;;;;;;;;6269333;28;20462;-62
2022/10/14 10:09:03;;;;;;;92.93;34.58;;;;;;;;;;6268114;28;20062;-59
2022/10/14 10:12:45;;;;;;;96.88;32.83;;;;;;;;;;6267904;28;20056;-63
2022/10/14 10:16:01;;;;;;;90.32;32.05;;;;;;;;;;6200793;28;20054;-59
2022/10/14 10:19:26;;;;;;;84.72;32.05;;;;;;;;;;6201504;28;20197;-59
2022/10/14 10:22:35;;;;;;;96.72;35.53;;;;;;;;;;6269213;28;20106;-61
2022/10/14 10:25:36;;;;;;;84.28;32.53;;;;;;;;;;6268722;28;20232;-59
2022/10/14 10:28:44;;;;;;;88.07;31.70;;;;;;;;;;6264402;28;20049;-62
2022/10/14 10:32:01;;;;;;;88.82;31.00;;;;;;;;;;6268292;28;20140;-61
2022/10/14 10:35:19;;;;;;;97.68;34.72;;;;;;;;;;6270979;28;20052;-59
2022/10/14 10:38:33;;;;;;;93.00;35.28;;;;;;;;;;6267381;28;20147;-61
2022/10/14 10:42:04;;;;;;;104.03;34.50;;;;;;;;;;6270944;28;20139;-60
2022/10/14 10:45:17;;;;;;;98.13;35.47;;;;;;;;;;6271799;28;20139;-63
2022/10/14 10:48:46;;;;;;;90.97;35.15;;;;;;;;;;6268113;28;20045;-60
2022/10/14 10:52:15;;;;;;;93.90;33.30;;;;;;;;;;6270447;28;20095;-62
2022/10/14 10:55:23;;;;;;;83.05;32.28;;;;;;;;;;6267379;28;20044;-58
2022/10/14 10:58:45;;;;;;;99.07;35.63;;;;;;;;;;6270429;28;20733;-59
2022/10/14 11:02:20;;;;;;;93.88;31.75;;;;;;;;;;6271076;28;20049;-60
2022/10/14 11:05:50;;;;;;;85.00;30.40;;;;;;;;;;6273730;28;20135;-59
2022/10/14 11:12:33;;;;;;;76.63;27.13;;;;;;;;;;6269051;28;20059;-60
2022/10/14 11:16:06;;;;;;;79.80;27.65;;;;;;;;;;6269164;28;20052;-61
2022/10/14 11:19:18;;;;;;;81.25;28.10;;;;;;;;;;6265843;28;20139;-58
2022/10/14 11:22:37;;;;;;;75.10;26.13;;;;;;;;;;6269728;28;20049;-59
2022/10/14 11:25:48;;;;;;;68.97;25.77;;;;;;;;;;6268635;28;22055;-61
2022/10/14 11:28:54;;;;;;;74.47;26.08;;;;;;;;;;6267728;28;20044;-64
2022/10/14 11:32:39;;;;;;;72.15;25.75;;;;;;;;;;6269884;28;20595;-63
2022/10/14 11:35:52;;;;;;;68.50;25.27;;;;;;;;;;6269868;28;21211;-63
2022/10/14 11:39:21;;;;;;;72.30;25.02;;;;;;;;;;6265393;28;20053;-61
2022/10/14 11:42:50;;;;;;;76.97;26.23;;;;;;;;;;6266083;28;20049;-63
2022/10/14 11:45:59;;;;;;;78.28;26.02;;;;;;;;;;6271176;28;20525;-63
2022/10/14 11:49:24;;;;;;;76.78;27.02;;;;;;;;;;6268032;28;20052;-59
2022/10/14 11:52:37;;;;;;;73.90;24.13;;;;;;;;;;6272174;28;20136;-59
2022/10/14 11:55:45;;;;;;;75.60;25.60;;;;;;;;;;6265172;28;20048;-63
2022/10/14 11:58:47;;;;;;;70.93;24.00;;;;;;;;;;6265116;28;20407;-59
2022/10/14 12:01:52;;;;;;;72.68;25.20;;;;;;;;;;6269420;28;20049;-63
2022/10/14 12:05:00;;;;;;;69.28;24.73;;;;;;;;;;6269937;28;21709;-61
2022/10/14 12:08:26;;;;;;;72.07;26.17;;;;;;;;;;6263424;28;20057;-61
2022/10/14 12:11:33;;;;;;;71.70;26.05;;;;;;;;;;6267046;28;20135;-60
2022/10/14 12:14:49;;;;;;;65.05;23.73;;;;;;;;;;6267327;28;20051;-61
2022/10/14 12:18:00;;;;;;;72.07;24.40;;;;;;;;;;6264644;28;20828;-62
2022/10/14 12:21:11;;;;;;;60.35;22.63;;;;;;;;;;6267623;28;20057;-59
2022/10/14 12:24:15;;;;;;;66.23;24.03;;;;;;;;;;6268634;28;20063;-59
2022/10/14 12:27:18;;;;;;;62.78;24.60;;;;;;;;;;6267185;28;20060;-67
2022/10/14 12:30:35;;;;;;;65.07;25.05;;;;;;;;;;6264586;28;20045;-61
2022/10/14 12:34:12;;;;;;;66.07;24.10;;;;;;;;;;6267273;28;20045;-62
2022/10/14 12:37:28;;;;;;;72.45;24.48;;;;;;;;;;6268494;28;20148;-57
2022/10/14 12:40:29;;;;;;;69.32;25.70;;;;;;;;;;6267971;28;20052;-59
2022/10/14 12:43:30;;;;;;;72.38;26.17;;;;;;;;;;6265178;28;20586;-58
2022/10/14 12:46:30;;;;;;;74.22;26.38;;;;;;;;;;6265252;28;20057;-61
2022/10/14 12:49:34;;;;;;;62.90;25.50;;;;;;;;;;6263759;28;20067;-57
2022/10/14 12:52:37;;;;;;;73.60;26.17;;;;;;;;;;6262802;28;20044;-59
2022/10/14 12:55:48;;;;;;;72.45;25.67;;;;;;;;;;6262297;28;20044;-61
2022/10/14 12:59:01;;;;;;;75.40;26.83;;;;;;;;;;6264328;28;20164;-58
2022/10/14 13:02:32;;;;;;;74.20;26.50;;;;;;;;;;6263280;28;20072;-60
2022/10/14 13:05:41;;;;;;;66.55;24.30;;;;;;;;;;6267836;28;20141;-58
2022/10/14 13:09:10;;;;;;;59.67;21.95;;;;;;;;;;6265249;28;20082;-60
2022/10/14 13:12:20;;;;;;;63.42;22.33;;;;;;;;;;6268393;28;20049;-62
2022/10/14 13:15:47;;;;;;;67.13;25.60;;;;;;;;;;6265869;28;20105;-59
2022/10/14 13:18:49;;;;;;;62.25;24.45;;;;;;;;;;6264819;28;20048;-60
2022/10/14 13:21:51;;;;;;;58.22;23.50;;;;;;;;;;6264656;28;20833;-60
2022/10/14 13:24:59;;;;;;;67.75;23.17;;;;;;;;;;6265188;28;20114;-58
2022/10/14 13:28:18;;;;;;;61.80;22.13;;;;;;;;;;6263421;28;20059;-59
2022/10/14 13:31:54;;;;;;;58.15;23.42;;;;;;;;;;6266696;28;20049;-59
2022/10/14 13:35:10;;;;;;;58.22;21.58;;;;;;;;;;6262648;28;20582;-60
2022/10/14 13:38:17;;;;;;;60.10;22.85;;;;;;;;;;6270311;28;20060;-61
2022/10/14 13:41:24;;;;;;;57.15;22.45;;;;;;;;;;6272662;28;20110;-58
2022/10/14 13:44:25;;;;;;;58.70;22.40;;;;;;;;;;6268379;28;20051;-58
2022/10/14 13:47:25;;;;;;;57.90;22.63;;;;;;;;;;6266169;28;20097;-59
2022/10/14 13:50:33;;;;;;;59.20;21.88;;;;;;;;;;6271829;28;20871;-59
2022/10/14 13:53:34;;;;;;;61.72;23.38;;;;;;;;;;6270193;28;20081;-59
2022/10/14 13:56:34;;;;;;;61.92;22.58;;;;;;;;;;6267998;28;20049;-59
2022/10/14 13:59:40;;;;;;;64.00;22.98;;;;;;;;;;6269822;28;20045;-58
2022/10/14 14:02:42;;;;;;;66.35;23.08;;;;;;;;;;6272503;28;20076;-61
2022/10/14 14:05:43;;;;;;;56.47;21.48;;;;;;;;;;6269110;28;20131;-61
2022/10/14 14:08:53;;;;;;;55.17;20.08;;;;;;;;;;6267727;28;20361;-58
2022/10/14 14:11:56;;;;;;;58.92;21.48;;;;;;;;;;6272011;28;20139;-61
2022/10/14 14:14:58;;;;;;;52.28;21.88;;;;;;;;;;6269488;28;20419;-59
2022/10/14 14:17:59;;;;;;;54.17;21.05;;;;;;;;;;6266198;28;20148;-58
2022/10/14 14:21:00;;;;;;;49.38;21.20;;;;;;;;;;6268126;28;20049;-59
2022/10/14 14:24:14;;;;;;;59.00;21.42;;;;;;;;;;6268868;28;20052;-58
2022/10/14 14:27:20;;;;;;;55.25;20.77;;;;;;;;;;6269277;28;20053;-59
2022/10/14 14:30:31;;;;;;;58.22;22.20;;;;;;;;;;6269228;28;20076;-61
2022/10/14 14:33:33;;;;;;;71.70;22.63;;;;;;;;;;6270439;28;20048;-61
2022/10/14 14:36:34;;;;;;;58.53;21.40;;;;;;;;;;6272620;28;20128;-58
2022/10/14 14:39:35;;;;;;;53.65;21.90;;;;;;;;;;6267652;28;20084;-59
2022/10/14 14:42:38;;;;;;;58.00;22.58;;;;;;;;;;6270439;28;20447;-62
2022/10/14 14:45:45;;;;;;;58.75;22.10;;;;;;;;;;6269791;28;20498;-59
2022/10/14 14:48:52;;;;;;;55.22;21.92;;;;;;;;;;6261988;28;20073;-62
2022/10/14 14:51:53;;;;;;;66.93;23.55;;;;;;;;;;6271734;28;20067;-60
2022/10/14 14:54:54;;;;;;;56.75;22.17;;;;;;;;;;6270053;28;20118;-60
2022/10/14 14:57:59;;;;;;;64.35;23.35;;;;;;;;;;6268565;28;20044;-60
2022/10/14 15:01:00;;;;;;;63.85;24.63;;;;;;;;;;6273529;28;20117;-59
2022/10/14 15:04:06;;;;;;;59.85;23.50;;;;;;;;;;6269487;28;20057;-59
2022/10/14 15:07:13;;;;;;;56.53;22.38;;;;;;;;;;6269978;28;20132;-60
2022/10/14 15:10:27;;;;;;;65.40;21.33;;;;;;;;;;6272067;28;20053;-60
2022/10/14 15:13:38;;;;;;;61.42;23.20;;;;;;;;;;6278290;28;20067;-60
2022/10/14 15:16:41;;;;;;;55.70;22.65;;;;;;;;;;6291151;28;20051;-61
2022/10/14 15:19:41;;;;;;;72.65;25.15;;;;;;;;;;6294048;28;20281;-62
2022/10/14 15:22:43;;;;;;;69.35;24.63;;;;;;;;;;6287965;28;20060;-60
2022/10/14 15:25:55;;;;;;;;;;;;;;;;;;6294383;28;20083;-62
2022/10/14 15:29:10;;;;;;;63.60;23.00;;;;;;;;;;6293423;28;20019;-63
2022/10/14 15:32:13;;;;;;;67.10;24.58;;;;;;;;;;6293397;28;20132;-63
2022/10/14 15:35:16;;;;;;;64.55;25.30;;;;;;;;;;6290676;28;20037;-60
2022/10/14 15:38:17;;;;;;;76.97;26.92;;;;;;;;;;6292957;28;20457;-60
2022/10/14 15:41:18;;;;;;;70.50;27.38;;;;;;;;;;6294106;28;20471;-60
2022/10/14 15:44:19;;;;;;;70.78;25.92;;;;;;;;;;6292773;28;20047;-61
2022/10/14 15:47:19;;;;;;;67.97;25.65;;;;;;;;;;6294047;28;20102;-60
2022/10/14 15:50:23;;;;;;;70.07;25.05;;;;;;;;;;6294631;28;20075;-61
2022/10/14 15:53:24;;;;;;;67.65;25.95;;;;;;;;;;6288997;28;20098;-60
2022/10/14 15:56:25;;;;;;;71.57;26.57;;;;;;;;;;6293264;28;20072;-61
2022/10/14 15:59:26;;;;;;;69.15;26.13;;;;;;;;;;6269141;28;20041;-60
2022/10/14 16:02:34;;;;;;;68.20;25.10;;;;;;;;;;6292225;28;20090;-61
2022/10/14 16:05:35;;;;;;;65.25;25.80;;;;;;;;;;6290735;28;20136;-61
2022/10/14 16:08:37;;;;;;;64.85;26.35;;;;;;;;;;6284794;28;20059;-61
2022/10/14 16:11:38;;;;;;;70.63;25.90;;;;;;;;;;6285691;28;20040;-62
2022/10/14 16:14:39;;;;;;;75.15;26.25;;;;;;;;;;6285438;28;20040;-60
2022/10/14 16:17:40;;;;;;;72.50;26.48;;;;;;;;;;6287968;28;20090;-59
2022/10/14 16:20:41;;;;;;;73.30;26.85;;;;;;;;;;6291880;28;20061;-60
2022/10/14 16:23:42;;;;;;;81.95;29.55;;;;;;;;;;6285746;28;20139;-60
2022/10/14 16:26:43;;;;;;;87.28;33.33;;;;;;;;;;6283835;28;20052;-60
2022/10/14 16:29:44;;;;;;;98.80;37.78;;;;;;;;;;6286757;28;20487;-61
2022/10/14 16:32:44;;;;;;;93.22;35.22;;;;;;;;;;6285085;28;20064;-63
2022/10/14 16:35:49;;;;;;;99.80;34.10;;;;;;;;;;6280714;28;20476;-59
2022/10/14 16:38:51;;;;;;;99.53;38.13;;;;;;;;;;6178785;28;20466;-62
2022/10/14 16:41:52;;;;;;;113.20;37.78;;;;;;;;;;6229985;28;20141;-62
2022/10/14 16:44:52;;;;;;;89.47;33.97;;;;;;;;;;6211139;28;20124;-59
2022/10/14 16:47:53;;;;;;;87.53;33.63;;;;;;;;;;6208126;28;20083;-61
2022/10/14 16:50:54;;;;;;;91.55;33.30;;;;;;;;;;6202682;28;20444;-59
2022/10/14 16:53:54;;;;;;;80.30;31.17;;;;;;;;;;6228315;28;20040;-59
2022/10/14 16:56:55;;;;;;;75.05;28.60;;;;;;;;;;6277031;28;20052;-58
2022/10/14 16:59:56;;;;;;;84.65;29.58;;;;;;;;;;6261137;28;20052;-59
2022/10/14 17:02:57;;;;;;;88.38;30.27;;;;;;;;;;6268778;28;20048;-58
2022/10/14 17:05:57;;;;;;;85.65;30.70;;;;;;;;;;6267333;28;20420;-56
2022/10/14 17:08:58;;;;;;;120.78;46.03;;;;;;;;;;6259872;28;20049;-59
2022/10/14 17:12:00;;;;;;;151.85;59.05;;;;;;;;;;6266941;28;20048;-59
2022/10/14 17:15:02;;;;;;;129.82;54.83;;;;;;;;;;6267142;28;20056;-63
2022/10/14 17:18:03;;;;;;;109.20;45.67;;;;;;;;;;6266308;28;20061;-59
2022/10/14 17:21:10;;;;;;;95.80;37.15;;;;;;;;;;6266462;28;20049;-59
2022/10/14 17:24:11;;;;;;;84.40;33.30;;;;;;;;;;6263689;28;20696;-58
2022/10/14 17:27:12;;;;;;;95.97;37.90;;;;;;;;;;6258453;28;20088;-62
2022/10/14 17:30:13;;;;;;;106.05;39.47;;;;;;;;;;6266969;28;20056;-59
2022/10/14 17:33:13;;;;;;;93.78;33.60;;;;;;;;;;6267893;28;20048;-57
2022/10/14 17:36:17;;;;;;;95.20;36.15;;;;;;;;;;6261257;28;20053;-59
2022/10/14 17:39:18;;;;;;;104.90;39.00;;;;;;;;;;6267624;28;20180;-61
2022/10/14 17:42:18;;;;;;;92.80;35.63;;;;;;;;;;6269772;28;20053;-58
2022/10/14 17:45:19;;;;;;;106.07;38.58;;;;;;;;;;6268869;28;20136;-55
2022/10/14 17:48:19;;;;;;;98.95;37.28;;;;;;;;;;6265768;28;20056;-57
2022/10/14 17:51:23;;;;;;;96.72;35.75;;;;;;;;;;6268185;28;20555;-59
2022/10/14 17:54:23;;;;;;;90.57;34.45;;;;;;;;;;6269041;28;20055;-59
2022/10/14 17:57:24;;;;;;;91.28;34.58;;;;;;;;;;6266061;28;20045;-59